Time,TemperatureF,DewpointF,PressureIn,WindDirection,WindDirectionDegrees,WindSpeedMPH,WindSpeedGustMPH,Humidity,HourlyPrecipIn,Conditions,Clouds,dailyrainin,SoftwareType,DateUTC
2013-07-18 00:01:00,73.6,57.0,25.90,South,184,9.0,20.0,57,0.00,,,0.00,weatherlink.com 1.10,2013-07-18 06:01:00,
2013-07-18 00:15:00,73.1,57.0,25.90,SW,225,8.0,15.0,58,0.00,,,0.00,weatherlink.com 1.10,2013-07-18 06:15:00,
2013-07-18 00:30:00,72.5,57.0,25.90,South,176,8.0,15.0,59,0.00,,,0.00,weatherlink.com 1.10,2013-07-18 06:30:00,
2013-07-18 00:45:00,72.1,57.0,25.90,SSE,150,10.0,14.0,60,0.00,,,0.00,weatherlink.com 1.10,2013-07-18 06:45:00,
2013-07-18 01:00:00,71.5,57.0,25.90,SSE,165,9.0,14.0,61,0.00,,,0.00,weatherlink.com 1.10,2013-07-18 07:00:00,
2013-07-18 01:15:00,70.9,58.0,25.89,South,184,10.0,15.0,63,0.00,,,0.00,weatherlink.com 1.10,2013-07-18 07:15:00,
2013-07-18 01:30:00,70.2,58.0,25.89,South,171,10.0,14.0,65,0.00,,,0.00,weatherlink.com 1.10,2013-07-18 07:30:00,
2013-07-18 01:45:00,69.7,58.0,25.89,SW,225,12.0,14.0,67,0.00,,,0.00,weatherlink.com 1.10,2013-07-18 07:45:00,
2013-07-18 02:00:00,69.4,58.0,25.88,South,188,7.0,14.0,68,0.00,,,0.00,weatherlink.com 1.10,2013-07-18 08:00:00,
2013-07-18 02:15:00,68.9,58.0,25.88,SSW,212,6.0,15.0,69,0.00,,,0.00,weatherlink.com 1.10,2013-07-18 08:15:00,
2013-07-18 02:31:00,68.4,58.0,25.88,WSW,240,8.0,15.0,70,0.00,,,0.00,weatherlink.com 1.10,2013-07-18 08:31:00,
2013-07-18 02:46:00,68.0,58.0,25.88,SSW,204,9.0,14.0,71,0.00,,,0.00,weatherlink.com 1.10,2013-07-18 08:46:00,
2013-07-18 03:01:00,67.5,59.0,25.88,SSW,201,6.0,11.0,73,0.00,,,0.00,weatherlink.com 1.10,2013-07-18 09:01:00,
2013-07-18 03:16:00,66.9,58.0,25.87,SW,215,6.0,9.0,74,0.00,,,0.00,weatherlink.com 1.10,2013-07-18 09:16:00,
2013-07-18 03:31:00,66.3,58.0,25.87,SW,228,6.0,8.0,75,0.00,,,0.00,weatherlink.com 1.10,2013-07-18 09:31:00,
2013-07-18 03:46:00,66.0,58.0,25.86,SW,226,4.0,9.0,76,0.00,,,0.00,weatherlink.com 1.10,2013-07-18 09:46:00,
2013-07-18 04:01:00,65.4,58.0,25.86,SW,226,4.0,9.0,77,0.00,,,0.00,weatherlink.com 1.10,2013-07-18 10:01:00,
2013-07-18 04:16:00,65.1,58.0,25.86,SW,226,5.0,10.0,78,0.00,,,0.00,weatherlink.com 1.10,2013-07-18 10:16:00,
2013-07-18 04:31:00,64.4,58.0,25.86,SSW,206,7.0,10.0,80,0.00,,,0.00,weatherlink.com 1.10,2013-07-18 10:31:00,
2013-07-18 04:46:00,63.8,58.0,25.86,SW,235,6.0,10.0,82,0.00,,,0.00,weatherlink.com 1.10,2013-07-18 10:46:00,
2013-07-18 05:01:00,63.7,58.0,25.85,SSW,195,4.0,11.0,82,0.00,,,0.00,weatherlink.com 1.10,2013-07-18 11:01:00,
2013-07-18 05:16:00,63.2,58.0,25.85,SSW,204,7.0,10.0,82,0.00,,,0.00,weatherlink.com 1.10,2013-07-18 11:16:00,
2013-07-18 05:31:00,62.4,58.0,25.86,West,280,3.0,10.0,84,0.00,,,0.00,weatherlink.com 1.10,2013-07-18 11:31:00,
2013-07-18 05:46:00,62.2,58.0,25.86,SSW,208,5.0,5.0,85,0.00,,,0.00,weatherlink.com 1.10,2013-07-18 11:46:00,
2013-07-18 06:01:00,63.2,58.0,25.86,South,179,5.0,7.0,84,0.00,,,0.00,weatherlink.com 1.10,2013-07-18 12:01:00,
2013-07-18 06:16:00,63.6,58.0,25.86,SSW,205,4.0,8.0,83,0.00,,,0.00,weatherlink.com 1.10,2013-07-18 12:16:00,
2013-07-18 06:31:00,64.2,59.0,25.85,SSW,200,7.0,13.0,83,0.00,,,0.00,weatherlink.com 1.10,2013-07-18 12:31:00,
2013-07-18 06:46:00,65.3,59.0,25.85,SSW,201,10.0,13.0,81,0.00,,,0.00,weatherlink.com 1.10,2013-07-18 12:46:00,
2013-07-18 07:01:00,66.2,60.0,25.85,SSW,201,10.0,15.0,80,0.00,,,0.00,weatherlink.com 1.10,2013-07-18 13:01:00,
2013-07-18 07:16:00,67.4,60.0,25.85,SSW,200,9.0,16.0,77,0.00,,,0.00,weatherlink.com 1.10,2013-07-18 13:16:00,
2013-07-18 07:31:00,68.0,60.0,25.85,WSW,249,6.0,16.0,76,0.00,,,0.00,weatherlink.com 1.10,2013-07-18 13:31:00,
2013-07-18 07:46:00,68.6,60.0,25.86,West,262,6.0,13.0,75,0.00,,,0.00,weatherlink.com 1.10,2013-07-18 13:46:00,
2013-07-18 08:01:00,70.2,60.0,25.86,West,262,3.0,10.0,71,0.00,,,0.00,weatherlink.com 1.10,2013-07-18 14:01:00,
2013-07-18 08:16:00,71.3,60.0,25.86,West,271,3.0,13.0,68,0.00,,,0.00,weatherlink.com 1.10,2013-07-18 14:16:00,
2013-07-18 08:31:00,72.8,60.0,25.86,WSW,245,8.0,12.0,64,0.00,,,0.00,weatherlink.com 1.10,2013-07-18 14:31:00,
2013-07-18 08:46:00,74.0,60.0,25.86,West,280,8.0,12.0,61,0.00,,,0.00,weatherlink.com 1.10,2013-07-18 14:46:00,
2013-07-18 09:01:00,75.5,60.0,25.86,SSW,201,6.0,13.0,59,0.00,,,0.00,weatherlink.com 1.10,2013-07-18 15:01:00,
2013-07-18 09:16:00,76.4,59.0,25.85,SW,226,10.0,13.0,56,0.00,,,0.00,weatherlink.com 1.10,2013-07-18 15:16:00,
2013-07-18 09:31:00,77.0,60.0,25.85,SW,232,3.0,10.0,55,0.00,,,0.00,weatherlink.com 1.10,2013-07-18 15:31:00,
2013-07-18 09:46:00,78.2,60.0,25.85,WNW,302,2.0,9.0,53,0.00,,,0.00,weatherlink.com 1.10,2013-07-18 15:46:00,
2013-07-18 10:02:00,80.5,60.0,25.85,SSW,201,3.0,9.0,50,0.00,,,0.00,weatherlink.com 1.10,2013-07-18 16:02:00,
2013-07-18 10:17:00,81.3,59.0,25.84,WSW,253,5.0,7.0,47,0.00,,,0.00,weatherlink.com 1.10,2013-07-18 16:17:00,
2013-07-18 10:32:00,82.1,59.0,25.84,SSW,212,6.0,9.0,46,0.00,,,0.00,weatherlink.com 1.10,2013-07-18 16:32:00,
2013-07-18 10:47:00,81.8,59.0,25.84,SSW,210,4.0,11.0,46,0.00,,,0.00,weatherlink.com 1.10,2013-07-18 16:47:00,
2013-07-18 11:02:00,82.8,59.0,25.84,SW,232,5.0,10.0,44,0.00,,,0.00,weatherlink.com 1.10,2013-07-18 17:02:00,
2013-07-18 11:17:00,84.1,59.0,25.84,SW,225,8.0,9.0,42,0.00,,,0.00,weatherlink.com 1.10,2013-07-18 17:17:00,
2013-07-18 11:32:00,84.3,59.0,25.83,SW,236,7.0,13.0,42,0.00,,,0.00,weatherlink.com 1.10,2013-07-18 17:32:00,
2013-07-18 11:47:00,85.4,58.0,25.83,West,264,1.0,10.0,40,0.00,,,0.00,weatherlink.com 1.10,2013-07-18 17:47:00,
2013-07-18 12:02:00,86.6,60.0,25.83,West,272,5.0,13.0,40,0.00,,,0.00,weatherlink.com 1.10,2013-07-18 18:02:00,
2013-07-18 12:17:00,87.3,59.0,25.82,West,263,6.0,13.0,38,0.00,,,0.00,weatherlink.com 1.10,2013-07-18 18:17:00,
2013-07-18 12:32:00,88.2,59.0,25.82,WSW,256,3.0,12.0,37,0.00,,,0.00,weatherlink.com 1.10,2013-07-18 18:32:00,
2013-07-18 12:47:00,89.9,58.0,25.82,SW,217,7.0,13.0,34,0.00,,,0.00,weatherlink.com 1.10,2013-07-18 18:47:00,
2013-07-18 13:02:00,89.7,57.0,25.82,SW,235,5.0,10.0,33,0.00,,,0.00,weatherlink.com 1.10,2013-07-18 19:02:00,
2013-07-18 13:17:00,88.7,56.0,25.82,WSW,238,6.0,11.0,33,0.00,,,0.00,weatherlink.com 1.10,2013-07-18 19:17:00,
2013-07-18 13:32:00,89.4,56.0,25.81,NW,307,1.0,3.0,32,0.00,,,0.00,weatherlink.com 1.10,2013-07-18 19:32:00,
2013-07-18 13:47:00,90.2,56.0,25.80,West,264,4.0,7.0,31,0.00,,,0.00,weatherlink.com 1.10,2013-07-18 19:47:00,
2013-07-18 14:02:00,92.0,56.0,25.80,SSE,163,7.0,8.0,30,0.00,,,0.00,weatherlink.com 1.10,2013-07-18 20:02:00,
2013-07-18 14:17:00,93.8,56.0,25.80,WSW,240,5.0,8.0,28,0.00,,,0.00,weatherlink.com 1.10,2013-07-18 20:17:00,
2013-07-18 14:32:00,92.6,56.0,25.80,ENE,77,1.0,8.0,29,0.00,,,0.00,weatherlink.com 1.10,2013-07-18 20:32:00,
2013-07-18 14:47:00,93.1,56.0,25.79,NW,316,3.0,11.0,29,0.00,,,0.00,weatherlink.com 1.10,2013-07-18 20:47:00,
2013-07-18 15:02:00,96.3,55.0,25.79,NW,307,2.0,7.0,25,0.00,,,0.00,weatherlink.com 1.10,2013-07-18 21:02:00,
2013-07-18 15:17:00,96.7,53.0,25.78,WSW,255,1.0,5.0,23,0.00,,,0.00,weatherlink.com 1.10,2013-07-18 21:17:00,
2013-07-18 15:32:00,96.4,55.0,25.78,West,260,1.0,7.0,25,0.00,,,0.00,weatherlink.com 1.10,2013-07-18 21:32:00,
2013-07-18 15:47:00,94.3,56.0,25.78,NNE,12,5.0,14.0,27,0.00,,,0.00,weatherlink.com 1.10,2013-07-18 21:47:00,
2013-07-18 16:02:00,93.7,55.0,25.77,SSW,195,5.0,12.0,27,0.00,,,0.00,weatherlink.com 1.10,2013-07-18 22:02:00,
2013-07-18 16:17:00,92.6,56.0,25.78,East,84,9.0,12.0,29,0.00,,,0.00,weatherlink.com 1.10,2013-07-18 22:17:00,
2013-07-18 16:32:00,92.3,56.0,25.78,SE,131,8.0,11.0,29,0.00,,,0.00,weatherlink.com 1.10,2013-07-18 22:32:00,
2013-07-18 16:47:00,91.6,55.0,25.77,SSE,158,4.0,13.0,29,0.00,,,0.00,weatherlink.com 1.10,2013-07-18 22:47:00,
2013-07-18 17:02:00,91.3,55.0,25.78,SE,132,4.0,9.0,29,0.00,,,0.00,weatherlink.com 1.10,2013-07-18 23:02:00,
2013-07-18 17:17:00,91.6,55.0,25.77,ESE,117,5.0,10.0,29,0.00,,,0.00,weatherlink.com 1.10,2013-07-18 23:17:00,
2013-07-18 17:33:00,92.3,56.0,25.77,ESE,105,9.0,11.0,29,0.00,,,0.00,weatherlink.com 1.10,2013-07-18 23:33:00,
2013-07-18 17:48:00,91.8,53.0,25.77,East,98,9.0,13.0,27,0.00,,,0.00,weatherlink.com 1.10,2013-07-18 23:48:00,
2013-07-18 18:03:00,91.3,55.0,25.77,East,81,9.0,12.0,29,0.00,,,0.00,weatherlink.com 1.10,2013-07-19 00:03:00,
2013-07-18 18:18:00,91.3,58.0,25.77,ESE,109,6.0,14.0,33,0.00,,,0.00,weatherlink.com 1.10,2013-07-19 00:18:00,
2013-07-18 18:33:00,91.5,58.0,25.77,SSE,150,8.0,14.0,32,0.00,,,0.00,weatherlink.com 1.10,2013-07-19 00:33:00,
2013-07-18 18:48:00,90.2,57.0,25.77,SSE,156,6.0,14.0,33,0.00,,,0.00,weatherlink.com 1.10,2013-07-19 00:48:00,
2013-07-18 19:03:00,88.6,58.0,25.77,SE,145,6.0,11.0,35,0.00,,,0.00,weatherlink.com 1.10,2013-07-19 01:03:00,
2013-07-18 19:18:00,87.2,58.0,25.77,SSE,153,3.0,6.0,37,0.00,,,0.00,weatherlink.com 1.10,2013-07-19 01:18:00,
2013-07-18 19:33:00,86.3,59.0,25.78,SE,142,3.0,7.0,39,0.00,,,0.00,weatherlink.com 1.10,2013-07-19 01:33:00,
2013-07-18 19:48:00,84.9,59.0,25.79,NE,40,8.0,11.0,41,0.00,,,0.00,weatherlink.com 1.10,2013-07-19 01:48:00,
2013-07-18 20:03:00,83.5,58.0,25.80,NE,56,8.0,12.0,42,0.00,,,0.00,weatherlink.com 1.10,2013-07-19 02:03:00,
2013-07-18 20:18:00,82.7,58.0,25.81,ESE,103,6.0,8.0,43,0.00,,,0.00,weatherlink.com 1.10,2013-07-19 02:18:00,
2013-07-18 20:33:00,81.8,58.0,25.81,NE,48,8.0,12.0,45,0.00,,,0.00,weatherlink.com 1.10,2013-07-19 02:33:00,
2013-07-18 20:48:00,80.7,59.0,25.82,ENE,69,5.0,9.0,47,0.00,,,0.00,weatherlink.com 1.10,2013-07-19 02:48:00,
2013-07-18 21:03:00,79.6,59.0,25.82,East,79,6.0,7.0,49,0.00,,,0.00,weatherlink.com 1.10,2013-07-19 03:03:00,
2013-07-18 21:18:00,79.2,59.0,25.83,NE,56,6.0,8.0,50,0.00,,,0.00,weatherlink.com 1.10,2013-07-19 03:18:00,
2013-07-18 21:33:00,79.0,59.0,25.83,ENE,58,4.0,6.0,51,0.00,,,0.00,weatherlink.com 1.10,2013-07-19 03:33:00,
2013-07-18 21:48:00,78.4,59.0,25.83,ENE,58,4.0,6.0,52,0.00,,,0.00,weatherlink.com 1.10,2013-07-19 03:48:00,
2013-07-18 22:03:00,78.6,59.0,25.84,NNE,25,3.0,5.0,52,0.00,,,0.00,weatherlink.com 1.10,2013-07-19 04:03:00,
2013-07-18 22:18:00,77.0,60.0,25.84,NNE,22,2.0,3.0,55,0.00,,,0.00,weatherlink.com 1.10,2013-07-19 04:18:00,
2013-07-18 22:33:00,76.1,60.0,25.84,NNE,27,3.0,4.0,57,0.00,,,0.00,weatherlink.com 1.10,2013-07-19 04:33:00,
2013-07-18 22:48:00,75.7,60.0,25.85,NNE,33,4.0,5.0,59,0.00,,,0.00,weatherlink.com 1.10,2013-07-19 04:48:00,
2013-07-18 23:03:00,76.6,61.0,25.85,ENE,75,5.0,6.0,58,0.00,,,0.00,weatherlink.com 1.10,2013-07-19 05:03:00,
2013-07-18 23:18:00,77.1,61.0,25.85,NE,54,3.0,8.0,57,0.00,,,0.00,weatherlink.com 1.10,2013-07-19 05:18:00,
2013-07-18 23:33:00,77.4,60.0,25.85,ENE,63,3.0,8.0,56,0.00,,,0.00,weatherlink.com 1.10,2013-07-19 05:33:00,
2013-07-18 23:48:00,76.7,61.0,25.85,ENE,58,2.0,6.0,58,0.00,,,0.00,weatherlink.com 1.10,2013-07-19 05:48:00,